Aviation Digital Data Service (ADDS)

Output produced by METARs form (1526 UTC 06 February 2016)
found at http://www.aviationweather.gov/adds/metars/
 
KBOS 061519Z 0615/0718 26009KT P6SM BKN180 
     FM061700 23010KT P6SM SCT200 
     FM062100 22010G20KT P6SM BKN200 
     FM071100 24006KT P6SM SKC